sensor_id;sensor_type;location;lat;lon;timestamp;P1;durP1;ratioP1;P2;durP2;ratioP2
64022;SDS011;50264;52.088;5.296;2023-05-10T00:00:14;68.41;;;40.31;;
64022;SDS011;50264;52.088;5.296;2023-05-10T00:01:51;65.91;;;39.81;;
64022;SDS011;50264;52.088;5.296;2023-05-10T00:03:27;61.0;;;37.4;;
64022;SDS011;50264;52.088;5.296;2023-05-10T00:06:40;61.7;;;39.4;;
64022;SDS011;50264;52.088;5.296;2023-05-10T00:08:16;62.8;;;36.81;;
64022;SDS011;50264;52.088;5.296;2023-05-10T00:09:52;69.3;;;36.81;;
64022;SDS011;50264;52.088;5.296;2023-05-10T00:11:29;65.8;;;38.1;;
64022;SDS011;50264;52.088;5.296;2023-05-10T00:14:41;42.6;;;32.9;;
64022;SDS011;50264;52.088;5.296;2023-05-10T00:16:17;62.7;;;38.9;;
64022;SDS011;50264;52.088;5.296;2023-05-10T00:17:53;45.6;;;31.7;;
64022;SDS011;50264;52.088;5.296;2023-05-10T00:21:05;41.0;;;33.5;;
64022;SDS011;50264;52.088;5.296;2023-05-10T00:22:41;46.4;;;32.4;;
64022;SDS011;50264;52.088;5.296;2023-05-10T00:24:18;61.2;;;34.4;;
64022;SDS011;50264;52.088;5.296;2023-05-10T00:27:30;52.7;;;34.9;;
64022;SDS011;50264;52.088;5.296;2023-05-10T00:29:06;65.3;;;37.0;;
64022;SDS011;50264;52.088;5.296;2023-05-10T00:30:42;49.5;;;35.0;;
64022;SDS011;50264;52.088;5.296;2023-05-10T00:32:18;56.4;;;35.5;;
64022;SDS011;50264;52.088;5.296;2023-05-10T00:35:31;73.3;;;39.81;;
64022;SDS011;50264;52.088;5.296;2023-05-10T00:37:07;68.3;;;40.0;;
64022;SDS011;50264;52.088;5.296;2023-05-10T00:38:44;63.5;;;39.9;;
64022;SDS011;50264;52.088;5.296;2023-05-10T00:41:56;87.8;;;44.4;;
64022;SDS011;50264;52.088;5.296;2023-05-10T00:43:32;70.7;;;40.4;;
64022;SDS011;50264;52.088;5.296;2023-05-10T00:45:08;49.7;;;33.8;;
64022;SDS011;50264;52.088;5.296;2023-05-10T00:48:20;61.0;;;34.71;;
64022;SDS011;50264;52.088;5.296;2023-05-10T00:49:58;82.7;;;52.8;;
64022;SDS011;50264;52.088;5.296;2023-05-10T00:51:34;101.5;;;57.9;;
64022;SDS011;50264;52.088;5.296;2023-05-10T00:54:46;83.9;;;53.7;;
64022;SDS011;50264;52.088;5.296;2023-05-10T00:56:22;85.4;;;51.3;;
64022;SDS011;50264;52.088;5.296;2023-05-10T00:57:58;84.2;;;52.2;;
64022;SDS011;50264;52.088;5.296;2023-05-10T00:59:35;81.61;;;52.3;;
64022;SDS011;50264;52.088;5.296;2023-05-10T01:04:25;77.5;;;52.5;;
64022;SDS011;50264;52.088;5.296;2023-05-10T01:06:01;78.2;;;46.6;;
64022;SDS011;50264;52.088;5.296;2023-05-10T01:09:13;82.1;;;49.8;;
64022;SDS011;50264;52.088;5.296;2023-05-10T01:10:49;81.8;;;51.2;;
64022;SDS011;50264;52.088;5.296;2023-05-10T01:12:25;100.5;;;56.0;;
64022;SDS011;50264;52.088;5.296;2023-05-10T01:15:38;83.6;;;51.5;;
64022;SDS011;50264;52.088;5.296;2023-05-10T01:17:16;90.3;;;53.6;;
64022;SDS011;50264;52.088;5.296;2023-05-10T01:18:53;87.8;;;52.1;;
64022;SDS011;50264;52.088;5.296;2023-05-10T01:20:35;97.9;;;55.1;;
64022;SDS011;50264;52.088;5.296;2023-05-10T01:24:46;104.0;;;56.8;;
64022;SDS011;50264;52.088;5.296;2023-05-10T01:28:08;97.9;;;54.6;;
64022;SDS011;50264;52.088;5.296;2023-05-10T01:30:05;97.7;;;55.2;;
64022;SDS011;50264;52.088;5.296;2023-05-10T01:32:03;107.5;;;57.9;;
64022;SDS011;50264;52.088;5.296;2023-05-10T01:33:52;92.0;;;56.3;;
64022;SDS011;50264;52.088;5.296;2023-05-10T01:35:35;97.9;;;55.2;;
64022;SDS011;50264;52.088;5.296;2023-05-10T01:37:20;79.8;;;50.8;;
64022;SDS011;50264;52.088;5.296;2023-05-10T01:40:48;68.5;;;46.0;;
64022;SDS011;50264;52.088;5.296;2023-05-10T01:42:38;85.2;;;53.9;;
64022;SDS011;50264;52.088;5.296;2023-05-10T01:44:24;94.0;;;52.2;;
64022;SDS011;50264;52.088;5.296;2023-05-10T01:46:10;91.6;;;53.4;;
64022;SDS011;50264;52.088;5.296;2023-05-10T01:47:54;85.8;;;52.0;;
64022;SDS011;50264;52.088;5.296;2023-05-10T01:51:19;100.9;;;54.0;;
64022;SDS011;50264;52.088;5.296;2023-05-10T01:53:00;109.6;;;57.8;;
64022;SDS011;50264;52.088;5.296;2023-05-10T01:54:37;81.61;;;48.9;;
64022;SDS011;50264;52.088;5.296;2023-05-10T01:56:19;82.8;;;49.7;;
64022;SDS011;50264;52.088;5.296;2023-05-10T01:59:40;80.61;;;51.1;;
64022;SDS011;50264;52.088;5.296;2023-05-10T02:01:21;91.6;;;54.6;;
64022;SDS011;50264;52.088;5.296;2023-05-10T02:02:58;87.4;;;52.8;;
64022;SDS011;50264;52.088;5.296;2023-05-10T02:04:39;83.1;;;50.3;;
64022;SDS011;50264;52.088;5.296;2023-05-10T02:07:57;94.4;;;55.4;;
64022;SDS011;50264;52.088;5.296;2023-05-10T02:09:35;90.6;;;51.7;;
64022;SDS011;50264;52.088;5.296;2023-05-10T02:11:14;79.0;;;49.1;;
64022;SDS011;50264;52.088;5.296;2023-05-10T02:12:53;100.9;;;56.6;;
64022;SDS011;50264;52.088;5.296;2023-05-10T02:16:10;100.9;;;55.5;;
64022;SDS011;50264;52.088;5.296;2023-05-10T02:17:49;101.8;;;57.3;;
64022;SDS011;50264;52.088;5.296;2023-05-10T02:19:29;102.6;;;58.8;;
64022;SDS011;50264;52.088;5.296;2023-05-10T02:21:07;90.6;;;53.4;;
64022;SDS011;50264;52.088;5.296;2023-05-10T02:24:25;106.6;;;60.0;;
64022;SDS011;50264;52.088;5.296;2023-05-10T02:26:02;112.3;;;61.3;;
64022;SDS011;50264;52.088;5.296;2023-05-10T02:27:39;122.7;;;63.0;;
64022;SDS011;50264;52.088;5.296;2023-05-10T02:30:55;105.8;;;60.6;;
64022;SDS011;50264;52.088;5.296;2023-05-10T02:32:32;123.2;;;63.4;;
64022;SDS011;50264;52.088;5.296;2023-05-10T02:34:10;117.9;;;61.6;;
64022;SDS011;50264;52.088;5.296;2023-05-10T02:35:48;132.5;;;62.8;;
64022;SDS011;50264;52.088;5.296;2023-05-10T02:39:04;106.9;;;64.1;;
64022;SDS011;50264;52.088;5.296;2023-05-10T02:40:42;116.3;;;61.7;;
64022;SDS011;50264;52.088;5.296;2023-05-10T02:42:22;113.2;;;61.7;;
64022;SDS011;50264;52.088;5.296;2023-05-10T02:45:43;116.3;;;64.2;;
64022;SDS011;50264;52.088;5.296;2023-05-10T02:47:23;120.7;;;66.3;;
64022;SDS011;50264;52.088;5.296;2023-05-10T02:48:59;158.5;;;70.7;;
64022;SDS011;50264;52.088;5.296;2023-05-10T02:50:36;127.6;;;69.11;;
64022;SDS011;50264;52.088;5.296;2023-05-10T02:54:00;126.7;;;66.7;;
64022;SDS011;50264;52.088;5.296;2023-05-10T02:55:57;148.21;;;67.41;;
64022;SDS011;50264;52.088;5.296;2023-05-10T02:57:38;136.4;;;69.3;;
64022;SDS011;50264;52.088;5.296;2023-05-10T02:59:17;155.1;;;69.2;;
64022;SDS011;50264;52.088;5.296;2023-05-10T03:00:53;128.7;;;66.5;;
64022;SDS011;50264;52.088;5.296;2023-05-10T03:04:05;140.4;;;68.3;;
64022;SDS011;50264;52.088;5.296;2023-05-10T03:05:42;123.8;;;62.8;;
64022;SDS011;50264;52.088;5.296;2023-05-10T03:07:19;138.6;;;70.2;;
64022;SDS011;50264;52.088;5.296;2023-05-10T03:10:31;141.4;;;66.8;;
64022;SDS011;50264;52.088;5.296;2023-05-10T03:12:17;130.31;;;65.91;;
64022;SDS011;50264;52.088;5.296;2023-05-10T03:14:08;152.4;;;70.2;;
64022;SDS011;50264;52.088;5.296;2023-05-10T03:15:53;125.4;;;65.1;;
64022;SDS011;50264;52.088;5.296;2023-05-10T03:17:39;153.21;;;69.7;;
64022;SDS011;50264;52.088;5.296;2023-05-10T03:21:07;124.3;;;64.7;;
64022;SDS011;50264;52.088;5.296;2023-05-10T03:22:47;117.1;;;64.5;;
64022;SDS011;50264;52.088;5.296;2023-05-10T03:24:27;131.5;;;69.11;;
64022;SDS011;50264;52.088;5.296;2023-05-10T03:26:04;129.81;;;66.91;;
64022;SDS011;50264;52.088;5.296;2023-05-10T03:29:20;124.5;;;66.91;;
64022;SDS011;50264;52.088;5.296;2023-05-10T03:30:59;116.9;;;64.0;;
64022;SDS011;50264;52.088;5.296;2023-05-10T03:32:35;128.4;;;66.8;;
64022;SDS011;50264;52.088;5.296;2023-05-10T03:35:47;111.5;;;62.7;;
64022;SDS011;50264;52.088;5.296;2023-05-10T03:37:23;148.31;;;69.7;;
64022;SDS011;50264;52.088;5.296;2023-05-10T03:38:59;120.9;;;65.91;;
64022;SDS011;50264;52.088;5.296;2023-05-10T03:40:35;117.4;;;64.0;;
64022;SDS011;50264;52.088;5.296;2023-05-10T03:43:48;125.7;;;64.1;;
64022;SDS011;50264;52.088;5.296;2023-05-10T03:45:24;124.6;;;64.7;;
64022;SDS011;50264;52.088;5.296;2023-05-10T03:47:00;136.6;;;65.3;;
64022;SDS011;50264;52.088;5.296;2023-05-10T03:50:13;115.0;;;62.1;;
64022;SDS011;50264;52.088;5.296;2023-05-10T03:51:49;127.1;;;63.8;;
64022;SDS011;50264;52.088;5.296;2023-05-10T03:53:25;155.4;;;65.41;;
64022;SDS011;50264;52.088;5.296;2023-05-10T03:56:38;133.7;;;64.1;;
64022;SDS011;50264;52.088;5.296;2023-05-10T03:58:14;120.7;;;61.7;;
64022;SDS011;50264;52.088;5.296;2023-05-10T03:59:51;115.5;;;61.2;;
64022;SDS011;50264;52.088;5.296;2023-05-10T04:03:03;124.6;;;61.7;;
64022;SDS011;50264;52.088;5.296;2023-05-10T04:04:39;111.0;;;59.4;;
64022;SDS011;50264;52.088;5.296;2023-05-10T04:06:15;135.1;;;64.3;;
64022;SDS011;50264;52.088;5.296;2023-05-10T04:13:13;120.7;;;60.0;;
64022;SDS011;50264;52.088;5.296;2023-05-10T04:14:49;137.5;;;63.2;;
64022;SDS011;50264;52.088;5.296;2023-05-10T04:16:25;115.5;;;60.4;;
64022;SDS011;50264;52.088;5.296;2023-05-10T04:19:37;114.0;;;60.0;;
64022;SDS011;50264;52.088;5.296;2023-05-10T04:21:14;108.3;;;58.8;;
64022;SDS011;50264;52.088;5.296;2023-05-10T04:22:50;139.81;;;64.5;;
64022;SDS011;50264;52.088;5.296;2023-05-10T04:26:02;139.81;;;65.1;;
64022;SDS011;50264;52.088;5.296;2023-05-10T04:27:38;127.3;;;59.7;;
64022;SDS011;50264;52.088;5.296;2023-05-10T04:29:14;144.5;;;64.41;;
64022;SDS011;50264;52.088;5.296;2023-05-10T04:30:50;161.1;;;67.41;;
64022;SDS011;50264;52.088;5.296;2023-05-10T04:34:03;153.21;;;65.7;;
64022;SDS011;50264;52.088;5.296;2023-05-10T04:35:39;138.9;;;64.2;;
64022;SDS011;50264;52.088;5.296;2023-05-10T04:37:15;165.9;;;67.3;;
64022;SDS011;50264;52.088;5.296;2023-05-10T04:40:27;143.71;;;66.8;;
64022;SDS011;50264;52.088;5.296;2023-05-10T04:42:03;140.5;;;64.7;;
64022;SDS011;50264;52.088;5.296;2023-05-10T04:43:39;124.5;;;60.7;;
64022;SDS011;50264;52.088;5.296;2023-05-10T04:46:52;128.5;;;60.2;;
64022;SDS011;50264;52.088;5.296;2023-05-10T04:48:28;138.6;;;64.7;;
64022;SDS011;50264;52.088;5.296;2023-05-10T04:50:04;135.0;;;64.8;;
64022;SDS011;50264;52.088;5.296;2023-05-10T04:51:42;128.6;;;63.1;;
64022;SDS011;50264;52.088;5.296;2023-05-10T04:54:54;129.2;;;64.41;;
64022;SDS011;50264;52.088;5.296;2023-05-10T04:56:30;123.5;;;63.1;;
64022;SDS011;50264;52.088;5.296;2023-05-10T04:58:07;142.9;;;64.7;;
64022;SDS011;50264;52.088;5.296;2023-05-10T05:01:19;132.6;;;66.8;;
64022;SDS011;50264;52.088;5.296;2023-05-10T05:02:55;125.6;;;65.91;;
64022;SDS011;50264;52.088;5.296;2023-05-10T05:04:31;149.5;;;67.7;;
64022;SDS011;50264;52.088;5.296;2023-05-10T05:07:43;150.6;;;70.8;;
64022;SDS011;50264;52.088;5.296;2023-05-10T05:09:20;130.2;;;67.6;;
64022;SDS011;50264;52.088;5.296;2023-05-10T05:10:56;113.3;;;60.8;;
64022;SDS011;50264;52.088;5.296;2023-05-10T05:14:08;150.71;;;69.41;;
64022;SDS011;50264;52.088;5.296;2023-05-10T05:15:44;136.5;;;67.3;;
64022;SDS011;50264;52.088;5.296;2023-05-10T05:17:21;168.0;;;73.41;;
64022;SDS011;50264;52.088;5.296;2023-05-10T05:18:57;128.9;;;68.2;;
64022;SDS011;50264;52.088;5.296;2023-05-10T05:22:16;118.0;;;68.91;;
64022;SDS011;50264;52.088;5.296;2023-05-10T05:23:54;127.3;;;66.91;;
64022;SDS011;50264;52.088;5.296;2023-05-10T05:25:31;115.0;;;63.9;;
64022;SDS011;50264;52.088;5.296;2023-05-10T05:28:42;112.0;;;62.7;;
64022;SDS011;50264;52.088;5.296;2023-05-10T05:30:18;119.5;;;62.8;;
64022;SDS011;50264;52.088;5.296;2023-05-10T05:31:54;101.6;;;57.4;;
64022;SDS011;50264;52.088;5.296;2023-05-10T05:35:09;97.8;;;59.5;;
64022;SDS011;50264;52.088;5.296;2023-05-10T05:36:45;91.7;;;54.3;;
64022;SDS011;50264;52.088;5.296;2023-05-10T05:38:22;88.7;;;53.9;;
64022;SDS011;50264;52.088;5.296;2023-05-10T05:39:59;101.1;;;57.3;;
64022;SDS011;50264;52.088;5.296;2023-05-10T05:43:15;112.9;;;61.7;;
64022;SDS011;50264;52.088;5.296;2023-05-10T05:44:53;95.2;;;56.9;;
64022;SDS011;50264;52.088;5.296;2023-05-10T05:46:30;89.3;;;57.7;;
64022;SDS011;50264;52.088;5.296;2023-05-10T05:49:46;99.3;;;58.2;;
64022;SDS011;50264;52.088;5.296;2023-05-10T05:51:24;95.2;;;59.9;;
64022;SDS011;50264;52.088;5.296;2023-05-10T05:53:01;107.9;;;63.0;;
64022;SDS011;50264;52.088;5.296;2023-05-10T05:54:37;109.2;;;63.8;;
64022;SDS011;50264;52.088;5.296;2023-05-10T05:57:52;111.3;;;59.1;;
64022;SDS011;50264;52.088;5.296;2023-05-10T05:59:30;84.1;;;55.4;;
64022;SDS011;50264;52.088;5.296;2023-05-10T06:01:07;79.2;;;51.2;;
64022;SDS011;50264;52.088;5.296;2023-05-10T06:04:23;94.0;;;55.9;;
64022;SDS011;50264;52.088;5.296;2023-05-10T06:06:01;76.3;;;50.3;;
64022;SDS011;50264;52.088;5.296;2023-05-10T06:07:39;86.8;;;54.6;;
64022;SDS011;50264;52.088;5.296;2023-05-10T06:09:16;93.4;;;56.3;;
64022;SDS011;50264;52.088;5.296;2023-05-10T06:12:30;93.3;;;58.3;;
64022;SDS011;50264;52.088;5.296;2023-05-10T06:19:00;94.3;;;55.3;;
64022;SDS011;50264;52.088;5.296;2023-05-10T06:20:38;104.5;;;56.5;;
64022;SDS011;50264;52.088;5.296;2023-05-10T06:22:17;78.0;;;49.5;;
64022;SDS011;50264;52.088;5.296;2023-05-10T06:23:55;92.5;;;53.5;;
64022;SDS011;50264;52.088;5.296;2023-05-10T06:27:11;86.4;;;52.3;;
64022;SDS011;50264;52.088;5.296;2023-05-10T06:28:48;88.9;;;53.5;;
64022;SDS011;50264;52.088;5.296;2023-05-10T06:30:26;91.5;;;54.4;;
64022;SDS011;50264;52.088;5.296;2023-05-10T06:33:41;92.2;;;54.2;;
64022;SDS011;50264;52.088;5.296;2023-05-10T06:36:57;74.41;;;46.6;;
64022;SDS011;50264;52.088;5.296;2023-05-10T06:38:35;75.11;;;45.6;;
64022;SDS011;50264;52.088;5.296;2023-05-10T06:41:51;81.3;;;46.2;;
64022;SDS011;50264;52.088;5.296;2023-05-10T06:43:28;68.61;;;44.5;;
64022;SDS011;50264;52.088;5.296;2023-05-10T06:45:07;57.6;;;36.81;;
64022;SDS011;50264;52.088;5.296;2023-05-10T06:48:21;56.1;;;36.4;;
64022;SDS011;50264;52.088;5.296;2023-05-10T06:49:58;57.6;;;35.4;;
64022;SDS011;50264;52.088;5.296;2023-05-10T06:51:35;52.6;;;32.21;;
64022;SDS011;50264;52.088;5.296;2023-05-10T06:53:11;50.6;;;32.3;;
64022;SDS011;50264;52.088;5.296;2023-05-10T06:56:26;49.9;;;32.6;;
64022;SDS011;50264;52.088;5.296;2023-05-10T06:58:03;45.2;;;28.5;;
64022;SDS011;50264;52.088;5.296;2023-05-10T06:59:40;38.9;;;26.6;;
64022;SDS011;50264;52.088;5.296;2023-05-10T07:02:56;39.81;;;27.4;;
64022;SDS011;50264;52.088;5.296;2023-05-10T07:04:32;47.4;;;28.6;;
64022;SDS011;50264;52.088;5.296;2023-05-10T07:06:08;33.4;;;22.8;;
64022;SDS011;50264;52.088;5.296;2023-05-10T07:07:45;32.21;;;23.1;;
64022;SDS011;50264;52.088;5.296;2023-05-10T07:11:01;33.3;;;24.1;;
64022;SDS011;50264;52.088;5.296;2023-05-10T07:12:40;32.9;;;23.3;;
64022;SDS011;50264;52.088;5.296;2023-05-10T07:14:18;32.5;;;23.4;;
64022;SDS011;50264;52.088;5.296;2023-05-10T07:19:11;30.8;;;21.5;;
64022;SDS011;50264;52.088;5.296;2023-05-10T07:20:48;33.21;;;21.1;;
64022;SDS011;50264;52.088;5.296;2023-05-10T07:22:26;29.6;;;20.8;;
64022;SDS011;50264;52.088;5.296;2023-05-10T07:25:41;27.8;;;19.41;;
64022;SDS011;50264;52.088;5.296;2023-05-10T07:27:19;27.1;;;18.3;;
64022;SDS011;50264;52.088;5.296;2023-05-10T07:28:56;27.5;;;19.3;;
64022;SDS011;50264;52.088;5.296;2023-05-10T07:32:11;25.4;;;19.2;;
64022;SDS011;50264;52.088;5.296;2023-05-10T07:33:47;29.7;;;19.7;;
64022;SDS011;50264;52.088;5.296;2023-05-10T07:35:25;32.3;;;21.3;;
64022;SDS011;50264;52.088;5.296;2023-05-10T07:37:02;26.3;;;20.0;;
64022;SDS011;50264;52.088;5.296;2023-05-10T07:40:18;29.7;;;19.3;;
64022;SDS011;50264;52.088;5.296;2023-05-10T07:41:55;26.8;;;19.8;;
64022;SDS011;50264;52.088;5.296;2023-05-10T07:43:33;31.6;;;21.7;;
64022;SDS011;50264;52.088;5.296;2023-05-10T07:46:48;26.2;;;18.5;;
64022;SDS011;50264;52.088;5.296;2023-05-10T07:48:26;27.8;;;18.8;;
64022;SDS011;50264;52.088;5.296;2023-05-10T07:50:03;23.8;;;18.5;;
64022;SDS011;50264;52.088;5.296;2023-05-10T07:51:40;27.9;;;18.5;;
64022;SDS011;50264;52.088;5.296;2023-05-10T07:54:55;29.3;;;18.91;;
64022;SDS011;50264;52.088;5.296;2023-05-10T07:56:32;23.3;;;17.0;;
64022;SDS011;50264;52.088;5.296;2023-05-10T07:58:09;25.4;;;18.61;;
64022;SDS011;50264;52.088;5.296;2023-05-10T08:01:24;24.1;;;17.3;;
64022;SDS011;50264;52.088;5.296;2023-05-10T08:03:02;24.0;;;18.0;;
64022;SDS011;50264;52.088;5.296;2023-05-10T08:04:39;27.6;;;17.7;;
64022;SDS011;50264;52.088;5.296;2023-05-10T08:06:17;26.3;;;17.61;;
64022;SDS011;50264;52.088;5.296;2023-05-10T08:09:33;20.3;;;16.11;;
64022;SDS011;50264;52.088;5.296;2023-05-10T08:11:10;27.1;;;16.7;;
64022;SDS011;50264;52.088;5.296;2023-05-10T08:12:48;25.3;;;17.0;;
64022;SDS011;50264;52.088;5.296;2023-05-10T08:16:04;21.3;;;17.0;;
64022;SDS011;50264;52.088;5.296;2023-05-10T08:17:42;18.91;;;14.4;;
64022;SDS011;50264;52.088;5.296;2023-05-10T08:19:20;21.7;;;14.3;;
64022;SDS011;50264;52.088;5.296;2023-05-10T08:20:58;21.0;;;15.3;;
64022;SDS011;50264;52.088;5.296;2023-05-10T08:24:12;20.7;;;16.0;;
64022;SDS011;50264;52.088;5.296;2023-05-10T08:25:50;22.6;;;15.5;;
64022;SDS011;50264;52.088;5.296;2023-05-10T08:27:26;23.7;;;17.2;;
64022;SDS011;50264;52.088;5.296;2023-05-10T08:30:40;23.3;;;14.4;;
64022;SDS011;50264;52.088;5.296;2023-05-10T08:32:18;24.6;;;15.3;;
64022;SDS011;50264;52.088;5.296;2023-05-10T08:33:55;24.2;;;16.61;;
64022;SDS011;50264;52.088;5.296;2023-05-10T08:35:33;26.2;;;16.11;;
64022;SDS011;50264;52.088;5.296;2023-05-10T08:38:49;27.7;;;16.61;;
64022;SDS011;50264;52.088;5.296;2023-05-10T08:40:28;21.7;;;17.11;;
64022;SDS011;50264;52.088;5.296;2023-05-10T08:42:06;19.41;;;15.8;;
64022;SDS011;50264;52.088;5.296;2023-05-10T08:45:25;24.8;;;17.7;;
64022;SDS011;50264;52.088;5.296;2023-05-10T08:47:08;20.6;;;17.11;;
64022;SDS011;50264;52.088;5.296;2023-05-10T08:48:48;18.41;;;15.9;;
64022;SDS011;50264;52.088;5.296;2023-05-10T08:50:26;20.41;;;16.4;;
64022;SDS011;50264;52.088;5.296;2023-05-10T08:53:44;20.9;;;15.5;;
64022;SDS011;50264;52.088;5.296;2023-05-10T08:55:22;20.11;;;15.2;;
64022;SDS011;50264;52.088;5.296;2023-05-10T08:57:00;22.4;;;15.0;;
64022;SDS011;50264;52.088;5.296;2023-05-10T08:58:38;25.1;;;16.9;;
64022;SDS011;50264;52.088;5.296;2023-05-10T09:01:55;23.1;;;16.8;;
64022;SDS011;50264;52.088;5.296;2023-05-10T09:03:34;22.0;;;16.2;;
64022;SDS011;50264;52.088;5.296;2023-05-10T09:05:12;19.3;;;15.3;;
64022;SDS011;50264;52.088;5.296;2023-05-10T09:08:26;20.3;;;16.4;;
64022;SDS011;50264;52.088;5.296;2023-05-10T09:10:04;21.0;;;15.5;;
64022;SDS011;50264;52.088;5.296;2023-05-10T09:11:43;26.2;;;17.8;;
64022;SDS011;50264;52.088;5.296;2023-05-10T09:13:21;19.91;;;15.1;;
64022;SDS011;50264;52.088;5.296;2023-05-10T09:16:38;18.2;;;15.6;;
64022;SDS011;50264;52.088;5.296;2023-05-10T09:18:18;21.1;;;14.8;;
64022;SDS011;50264;52.088;5.296;2023-05-10T09:19:57;17.61;;;14.5;;
64022;SDS011;50264;52.088;5.296;2023-05-10T09:21:36;22.8;;;15.8;;
64022;SDS011;50264;52.088;5.296;2023-05-10T09:25:03;17.2;;;14.0;;
64022;SDS011;50264;52.088;5.296;2023-05-10T09:26:45;21.1;;;15.5;;
64022;SDS011;50264;52.088;5.296;2023-05-10T09:28:24;22.6;;;16.11;;
64022;SDS011;50264;52.088;5.296;2023-05-10T09:30:02;17.61;;;14.1;;
64022;SDS011;50264;52.088;5.296;2023-05-10T09:33:23;18.41;;;14.6;;
64022;SDS011;50264;52.088;5.296;2023-05-10T09:35:05;17.8;;;14.3;;
64022;SDS011;50264;52.088;5.296;2023-05-10T09:36:52;18.3;;;13.7;;
64022;SDS011;50264;52.088;5.296;2023-05-10T09:38:33;18.91;;;14.3;;
64022;SDS011;50264;52.088;5.296;2023-05-10T09:42:02;23.3;;;16.61;;
64022;SDS011;50264;52.088;5.296;2023-05-10T09:43:42;21.0;;;16.0;;
64022;SDS011;50264;52.088;5.296;2023-05-10T09:45:18;19.2;;;15.5;;
64022;SDS011;50264;52.088;5.296;2023-05-10T09:46:57;17.8;;;14.9;;
64022;SDS011;50264;52.088;5.296;2023-05-10T09:50:19;18.0;;;15.5;;
64022;SDS011;50264;52.088;5.296;2023-05-10T09:51:59;18.5;;;14.9;;
64022;SDS011;50264;52.088;5.296;2023-05-10T09:53:38;20.5;;;14.3;;
64022;SDS011;50264;52.088;5.296;2023-05-10T09:55:17;20.11;;;13.9;;
64022;SDS011;50264;52.088;5.296;2023-05-10T09:58:34;20.3;;;13.5;;
64022;SDS011;50264;52.088;5.296;2023-05-10T10:00:16;21.5;;;14.4;;
64022;SDS011;50264;52.088;5.296;2023-05-10T10:01:56;19.91;;;14.2;;
64022;SDS011;50264;52.088;5.296;2023-05-10T10:03:40;14.2;;;12.7;;
64022;SDS011;50264;52.088;5.296;2023-05-10T10:06:58;16.11;;;12.1;;
64022;SDS011;50264;52.088;5.296;2023-05-10T10:08:36;24.0;;;13.2;;
64022;SDS011;50264;52.088;5.296;2023-05-10T10:10:15;13.8;;;12.3;;
64022;SDS011;50264;52.088;5.296;2023-05-10T10:11:53;14.6;;;12.6;;
64022;SDS011;50264;52.088;5.296;2023-05-10T10:15:09;13.7;;;11.9;;
64022;SDS011;50264;52.088;5.296;2023-05-10T10:16:47;17.0;;;11.6;;
64022;SDS011;50264;52.088;5.296;2023-05-10T10:18:26;15.0;;;12.4;;
64022;SDS011;50264;52.088;5.296;2023-05-10T10:21:42;15.4;;;11.6;;
64022;SDS011;50264;52.088;5.296;2023-05-10T10:23:20;16.8;;;11.3;;
64022;SDS011;50264;52.088;5.296;2023-05-10T10:24:58;17.8;;;11.7;;
64022;SDS011;50264;52.088;5.296;2023-05-10T10:26:36;16.8;;;11.6;;
64022;SDS011;50264;52.088;5.296;2023-05-10T10:30:05;16.4;;;12.3;;
64022;SDS011;50264;52.088;5.296;2023-05-10T10:31:55;13.7;;;12.0;;
64022;SDS011;50264;52.088;5.296;2023-05-10T10:33:47;19.41;;;13.4;;
64022;SDS011;50264;52.088;5.296;2023-05-10T10:35:36;13.6;;;10.6;;
64022;SDS011;50264;52.088;5.296;2023-05-10T10:37:14;11.1;;;9.9;;
64022;SDS011;50264;52.088;5.296;2023-05-10T10:40:33;16.8;;;10.9;;
64022;SDS011;50264;52.088;5.296;2023-05-10T10:42:11;14.8;;;11.0;;
64022;SDS011;50264;52.088;5.296;2023-05-10T10:43:48;14.6;;;11.0;;
64022;SDS011;50264;52.088;5.296;2023-05-10T10:45:26;14.8;;;11.2;;
64022;SDS011;50264;52.088;5.296;2023-05-10T10:48:47;14.6;;;11.0;;
64022;SDS011;50264;52.088;5.296;2023-05-10T10:50:25;12.1;;;10.8;;
64022;SDS011;50264;52.088;5.296;2023-05-10T10:52:21;10.6;;;9.5;;
64022;SDS011;50264;52.088;5.296;2023-05-10T10:54:08;12.3;;;10.0;;
64022;SDS011;50264;52.088;5.296;2023-05-10T10:55:46;13.6;;;11.1;;
64022;SDS011;50264;52.088;5.296;2023-05-10T10:59:03;15.4;;;9.21;;
64022;SDS011;50264;52.088;5.296;2023-05-10T11:00:39;16.4;;;8.81;;
64022;SDS011;50264;52.088;5.296;2023-05-10T11:02:48;14.0;;;8.4;;
64022;SDS011;50264;52.088;5.296;2023-05-10T11:04:26;11.8;;;9.21;;
64022;SDS011;50264;52.088;5.296;2023-05-10T11:07:45;12.1;;;9.71;;
64022;SDS011;50264;52.088;5.296;2023-05-10T11:09:26;11.6;;;8.6;;
64022;SDS011;50264;52.088;5.296;2023-05-10T11:11:03;13.2;;;8.1;;
64022;SDS011;50264;52.088;5.296;2023-05-10T11:12:50;11.5;;;7.2;;
64022;SDS011;50264;52.088;5.296;2023-05-10T11:16:11;10.3;;;7.3;;
64022;SDS011;50264;52.088;5.296;2023-05-10T11:17:50;10.9;;;7.0;;
64022;SDS011;50264;52.088;5.296;2023-05-10T11:19:27;10.1;;;7.1;;
64022;SDS011;50264;52.088;5.296;2023-05-10T11:21:03;8.4;;;6.6;;
64022;SDS011;50264;52.088;5.296;2023-05-10T11:24:31;11.9;;;7.8;;
64022;SDS011;50264;52.088;5.296;2023-05-10T11:26:07;12.2;;;7.1;;
64022;SDS011;50264;52.088;5.296;2023-05-10T11:27:44;10.4;;;7.5;;
64022;SDS011;50264;52.088;5.296;2023-05-10T11:29:23;9.4;;;7.2;;
64022;SDS011;50264;52.088;5.296;2023-05-10T11:32:36;10.7;;;7.0;;
64022;SDS011;50264;52.088;5.296;2023-05-10T11:34:22;11.7;;;6.7;;
64022;SDS011;50264;52.088;5.296;2023-05-10T11:36:00;10.7;;;7.5;;
64022;SDS011;50264;52.088;5.296;2023-05-10T11:37:36;7.0;;;6.1;;
64022;SDS011;50264;52.088;5.296;2023-05-10T11:40:49;8.9;;;6.5;;
64022;SDS011;50264;52.088;5.296;2023-05-10T11:42:27;14.4;;;6.3;;
64022;SDS011;50264;52.088;5.296;2023-05-10T11:44:04;7.2;;;6.2;;
64022;SDS011;50264;52.088;5.296;2023-05-10T11:47:18;6.9;;;5.4;;
64022;SDS011;50264;52.088;5.296;2023-05-10T11:48:55;6.3;;;5.11;;
64022;SDS011;50264;52.088;5.296;2023-05-10T11:50:34;6.4;;;5.11;;
64022;SDS011;50264;52.088;5.296;2023-05-10T11:53:46;11.8;;;5.9;;
64022;SDS011;50264;52.088;5.296;2023-05-10T11:55:24;7.2;;;5.9;;
64022;SDS011;50264;52.088;5.296;2023-05-10T11:57:01;7.3;;;5.8;;
64022;SDS011;50264;52.088;5.296;2023-05-10T11:58:37;8.71;;;5.8;;
64022;SDS011;50264;52.088;5.296;2023-05-10T12:01:51;9.31;;;6.1;;
64022;SDS011;50264;52.088;5.296;2023-05-10T12:03:28;9.9;;;5.8;;
64022;SDS011;50264;52.088;5.296;2023-05-10T12:05:05;9.0;;;5.8;;
64022;SDS011;50264;52.088;5.296;2023-05-10T12:08:20;6.4;;;5.3;;
64022;SDS011;50264;52.088;5.296;2023-05-10T12:10:05;10.8;;;5.9;;
64022;SDS011;50264;52.088;5.296;2023-05-10T12:11:43;8.71;;;5.6;;
64022;SDS011;50264;52.088;5.296;2023-05-10T12:13:19;6.8;;;5.7;;
64022;SDS011;50264;52.088;5.296;2023-05-10T12:16:33;7.8;;;5.4;;
64022;SDS011;50264;52.088;5.296;2023-05-10T12:18:09;5.4;;;4.91;;
64022;SDS011;50264;52.088;5.296;2023-05-10T12:19:46;8.71;;;4.91;;
64022;SDS011;50264;52.088;5.296;2023-05-10T12:22:58;8.2;;;5.0;;
64022;SDS011;50264;52.088;5.296;2023-05-10T12:24:34;10.21;;;4.61;;
64022;SDS011;50264;52.088;5.296;2023-05-10T12:26:11;6.8;;;5.11;;
64022;SDS011;50264;52.088;5.296;2023-05-10T12:27:50;8.0;;;5.11;;
64022;SDS011;50264;52.088;5.296;2023-05-10T12:31:06;7.0;;;5.11;;
64022;SDS011;50264;52.088;5.296;2023-05-10T12:32:43;7.0;;;5.0;;
64022;SDS011;50264;52.088;5.296;2023-05-10T12:34:23;6.0;;;4.5;;
64022;SDS011;50264;52.088;5.296;2023-05-10T12:37:37;8.0;;;4.2;;
64022;SDS011;50264;52.088;5.296;2023-05-10T12:39:14;8.31;;;4.3;;
64022;SDS011;50264;52.088;5.296;2023-05-10T12:40:50;6.7;;;4.1;;
64022;SDS011;50264;52.088;5.296;2023-05-10T12:42:26;8.71;;;4.61;;
64022;SDS011;50264;52.088;5.296;2023-05-10T12:45:38;6.4;;;5.8;;
64022;SDS011;50264;52.088;5.296;2023-05-10T12:47:14;7.9;;;6.6;;